Time;durP1;ratioP1;P1;durP2;ratioP2;P2;SDS_P1;SDS_P2;PMS_P1;PMS_P2;Temp;Humidity;BMP_temperature;BMP_pressure;BME280_temperature;BME280_humidity;BME280_pressure;Samples;Min_cycle;Max_cycle;Signal;HPM_P1;HPM_P2
2022/06/26 00:00:03;;;;;;;19.13;9.00;;;;;;;19.34;67.55;99850.34;5107760;27;20069;-71
2022/06/26 00:02:33;;;;;;;14.18;8.95;;;;;;;19.33;68.01;99856.75;5106887;27;20045;-68
2022/06/26 00:04:58;;;;;;;15.77;9.30;;;;;;;19.32;67.58;99854.19;5110295;27;20042;-69
2022/06/26 00:07:22;;;;;;;14.35;8.13;;;;;;;19.29;68.26;99860.81;5096575;27;20138;-69
2022/06/26 00:09:47;;;;;;;14.15;9.20;;;;;;;19.26;67.97;99853.00;5096895;27;20587;-75
2022/06/26 00:12:12;;;;;;;13.32;8.73;;;;;;;19.24;68.33;99855.00;5110578;27;20515;-74
2022/06/26 00:14:37;;;;;;;15.27;9.40;;;;;;;19.21;68.12;99869.69;5096468;27;20054;-75
2022/06/26 00:17:02;;;;;;;16.00;8.93;;;;;;;19.19;68.16;99863.59;5107900;27;20042;-73
2022/06/26 00:19:27;;;;;;;15.30;8.68;;;;;;;19.17;68.59;99871.03;5105425;27;20073;-70
2022/06/26 00:21:52;;;;;;;13.43;9.00;;;;;;;19.15;68.65;99855.97;5095757;27;20129;-72
2022/06/26 00:24:17;;;;;;;19.98;9.55;;;;;;;19.13;68.34;99866.94;5115475;27;20129;-70
2022/06/26 00:26:42;;;;;;;14.02;8.93;;;;;;;19.12;68.61;99870.66;5096484;27;20043;-70
2022/06/26 00:29:07;;;;;;;13.27;8.50;;;;;;;19.12;68.77;99867.94;5106587;27;20061;-69
2022/06/26 00:31:32;;;;;;;12.63;8.10;;;;;;;19.11;68.68;99866.25;5119467;27;20482;-71
2022/06/26 00:33:56;;;;;;;14.85;9.57;;;;;;;19.10;69.20;99878.06;5118720;27;20098;-70
2022/06/26 00:36:21;;;;;;;13.60;8.73;;;;;;;19.09;69.17;99870.09;5118855;27;20035;-70
2022/06/26 00:38:46;;;;;;;16.90;8.85;;;;;;;19.04;68.61;99876.00;5119172;27;20882;-69
2022/06/26 00:41:11;;;;;;;12.15;8.63;;;;;;;19.02;69.35;99874.47;5097879;27;20042;-69
2022/06/26 00:43:35;;;;;;;12.60;9.25;;;;;;;19.00;68.91;99879.16;5118786;27;20035;-70
2022/06/26 00:46:00;;;;;;;13.98;8.77;;;;;;;18.99;68.87;99882.88;5118500;27;20069;-71
2022/06/26 00:48:25;;;;;;;16.85;10.13;;;;;;;18.96;69.37;99878.63;5118561;27;20690;-71
2022/06/26 00:50:51;;;;;;;14.13;9.00;;;;;;;18.98;69.51;99882.03;5117987;27;20035;-69
2022/06/26 00:53:17;;;;;;;13.55;9.02;;;;;;;18.98;69.84;99881.16;5100243;27;20053;-70
2022/06/26 00:55:42;;;;;;;13.00;9.30;;;;;;;18.96;69.71;99884.03;5118795;27;20031;-68
2022/06/26 00:58:07;;;;;;;16.10;9.43;;;;;;;18.94;69.59;99891.47;5112865;27;20042;-71
2022/06/26 01:00:31;;;;;;;15.98;9.60;;;;;;;18.92;69.39;99884.50;5082875;27;20138;-70
2022/06/26 01:02:56;;;;;;;12.40;9.18;;;;;;;18.91;69.53;99894.47;5097442;27;20830;-70
2022/06/26 01:05:21;;;;;;;15.82;10.00;;;;;;;18.91;69.43;99882.81;5117839;27;20477;-69
2022/06/26 01:07:46;;;;;;;13.55;9.20;;;;;;;18.90;69.83;99894.63;5117735;27;20103;-69
2022/06/26 01:10:11;;;;;;;15.32;9.05;;;;;;;18.89;70.11;99896.47;5099261;27;20560;-66
2022/06/26 01:12:36;;;;;;;15.63;9.07;;;;;;;18.90;69.91;99886.53;5099209;27;20057;-67
2022/06/26 01:15:08;;;;;;;12.93;9.10;;;;;;;18.92;69.92;99896.19;5082528;27;20043;-69
2022/06/26 01:17:33;;;;;;;13.00;9.07;;;;;;;18.89;69.90;99896.47;5098172;27;20046;-73
2022/06/26 01:19:59;;;;;;;17.05;11.40;;;;;;;18.88;69.83;99900.19;5101602;27;20125;-76
2022/06/26 01:22:28;;;;;;;16.05;10.32;;;;;;;18.94;69.67;99904.97;5084770;27;20038;-75
2022/06/26 01:24:53;;;;;;;25.60;10.45;;;;;;;18.92;69.76;99904.28;5102187;27;20047;-75
2022/06/26 01:27:18;;;;;;;15.25;9.55;;;;;;;18.95;69.83;99909.38;5100741;27;20053;-77
2022/06/26 01:29:43;;;;;;;13.88;9.50;;;;;;;18.96;69.68;99899.41;5120616;27;20038;-76
2022/06/26 01:32:08;;;;;;;19.20;10.15;;;;;;;18.97;69.51;99901.09;5100702;27;20038;-77
2022/06/26 01:34:33;;;;;;;15.77;10.10;;;;;;;18.98;69.48;99898.22;5078383;27;20953;-75
2022/06/26 01:37:02;;;;;;;15.57;10.10;;;;;;;18.98;69.24;99906.34;5061438;27;20047;-75
2022/06/26 01:39:28;;;;;;;16.38;9.43;;;;;;;19.01;69.55;99903.34;5062010;27;20090;-77
2022/06/26 01:41:52;;;;;;;17.48;10.18;;;;;;;19.03;69.54;99906.72;5078296;27;20047;-76
2022/06/26 01:44:17;;;;;;;16.80;10.07;;;;;;;19.07;69.38;99905.41;5063034;27;20043;-76
2022/06/26 01:46:42;;;;;;;14.82;9.38;;;;;;;19.09;68.97;99906.09;5096784;27;20047;-73
2022/06/26 01:49:07;;;;;;;18.60;10.63;;;;;;;19.14;69.04;99911.03;5063796;27;20122;-75
2022/06/26 01:51:35;;;;;;;20.40;11.15;;;;;;;19.18;68.71;99915.13;5080811;27;20050;-75
2022/06/26 01:54:00;;;;;;;15.77;10.98;;;;;;;19.22;68.71;99914.63;5081624;27;20099;-75
2022/06/26 01:56:25;;;;;;;17.20;10.35;;;;;;;19.26;68.46;99911.63;5098149;27;20043;-79
2022/06/26 01:58:50;;;;;;;21.00;11.27;;;;;;;19.31;68.11;99911.97;5096384;27;20516;-76
2022/06/26 02:01:19;;;;;;;19.65;10.95;;;;;;;19.36;67.80;99904.25;5079431;27;20102;-73
2022/06/26 02:03:43;;;;;;;18.38;10.57;;;;;;;19.41;68.06;99913.56;5096417;27;20039;-72
2022/06/26 02:06:10;;;;;;;16.70;10.68;;;;;;;19.48;68.19;99911.97;5095779;27;20058;-70
2022/06/26 02:08:34;;;;;;;20.00;10.82;;;;;;;19.55;67.92;99917.56;5118427;27;20350;-72
2022/06/26 02:13:44;;;;;;;21.85;11.40;;;;;;;19.68;67.16;99912.56;5098804;27;20030;-70
2022/06/26 02:16:12;;;;;;;17.35;10.57;;;;;;;19.76;66.76;99915.31;5096796;27;20038;-70
2022/06/26 02:18:41;;;;;;;16.42;10.20;;;;;;;19.82;66.65;99917.41;5099132;27;20095;-70
2022/06/26 02:21:12;;;;;;;19.60;11.85;;;;;;;19.93;67.01;99922.50;5099522;27;20058;-69
2022/06/26 02:23:38;;;;;;;17.35;11.52;;;;;;;19.99;66.58;99930.97;5117896;27;20035;-68
2022/06/26 02:26:04;;;;;;;19.15;11.35;;;;;;;20.07;66.36;99934.59;5099237;27;20035;-70
2022/06/26 02:28:29;;;;;;;22.35;12.23;;;;;;;20.16;65.83;99938.16;5099649;27;20098;-69
2022/06/26 02:30:57;;;;;;;17.77;11.15;;;;;;;20.25;65.90;99931.75;5099574;27;20042;-69
2022/06/26 02:33:25;;;;;;;20.17;11.25;;;;;;;20.34;65.68;99938.03;5099059;27;20043;-71
2022/06/26 02:35:50;;;;;;;19.13;11.10;;;;;;;20.44;65.09;99944.19;5106315;27;20038;-72
2022/06/26 02:38:16;;;;;;;21.02;11.18;;;;;;;20.54;64.72;99948.44;5130543;27;20038;-69
2022/06/26 02:40:44;;;;;;;21.42;11.07;;;;;;;20.65;64.75;99956.25;5098152;27;20039;-70
2022/06/26 02:43:09;;;;;;;17.27;11.13;;;;;;;20.75;64.32;99945.28;5134545;27;20039;-70
2022/06/26 02:45:34;;;;;;;22.27;11.85;;;;;;;20.86;63.79;99952.25;5113150;27;20046;-72
2022/06/26 02:47:58;;;;;;;19.23;11.80;;;;;;;20.96;63.90;99958.34;5103007;27;20038;-74
2022/06/26 02:50:23;;;;;;;17.52;11.02;;;;;;;21.07;63.63;99951.75;5082978;27;20034;-75
2022/06/26 02:52:50;;;;;;;19.45;12.23;;;;;;;21.18;63.37;99957.72;5099088;27;20382;-77
2022/06/26 02:55:15;;;;;;;24.23;11.20;;;;;;;21.28;63.10;99957.53;5083364;27;20047;-73
2022/06/26 02:57:41;;;;;;;19.00;11.70;;;;;;;21.38;62.69;99956.31;5118493;27;20126;-70
2022/06/26 03:00:09;;;;;;;24.30;11.90;;;;;;;21.50;62.62;99959.53;5098237;27;20065;-74
2022/06/26 03:02:37;;;;;;;20.60;13.57;;;;;;;21.62;62.22;99954.59;5082141;27;20038;-73
2022/06/26 03:05:07;;;;;;;22.45;12.10;;;;;;;21.76;62.01;99962.03;5099161;27;20138;-75
2022/06/26 03:07:32;;;;;;;16.83;11.18;;;;;;;21.89;62.25;99967.78;5122658;27;20121;-76
2022/06/26 03:09:59;;;;;;;19.77;11.82;;;;;;;22.01;62.76;99960.09;5084340;27;20063;-73
2022/06/26 03:12:25;;;;;;;19.98;11.93;;;;;;;22.17;62.81;99960.06;5099296;27;20409;-74
2022/06/26 03:14:50;;;;;;;20.25;12.20;;;;;;;22.29;62.74;99968.66;5099569;27;20038;-75
2022/06/26 03:17:15;;;;;;;23.95;13.13;;;;;;;22.41;62.33;99978.94;5099229;27;20070;-76
2022/06/26 03:19:43;;;;;;;21.02;13.00;;;;;;;22.55;61.63;99981.94;5081795;27;20051;-71
2022/06/26 03:22:08;;;;;;;25.50;14.05;;;;;;;22.69;60.90;99986.59;5117157;27;20049;-72
2022/06/26 03:24:33;;;;;;;21.40;13.90;;;;;;;22.82;60.49;99989.59;5099032;27;20054;-76
2022/06/26 03:26:59;;;;;;;29.05;15.20;;;;;;;22.97;60.20;99989.69;5082720;27;20052;-74
2022/06/26 03:29:24;;;;;;;30.25;16.35;;;;;;;23.13;59.13;99985.00;5081594;27;20042;-75
2022/06/26 03:31:49;;;;;;;22.02;14.85;;;;;;;23.31;58.75;99984.66;5096812;27;20046;-73
2022/06/26 03:34:14;;;;;;;25.10;14.73;;;;;;;23.49;58.11;99987.88;5095067;27;20035;-73
2022/06/26 03:36:43;;;;;;;24.30;14.98;;;;;;;23.67;57.71;99973.13;5097321;27;20034;-73
2022/06/26 03:39:08;;;;;;;31.58;14.63;;;;;;;23.84;57.28;99980.09;5096789;27;20047;-73
2022/06/26 03:41:35;;;;;;;26.08;14.15;;;;;;;24.03;57.66;99978.69;5071070;27;20489;-73
2022/06/26 03:44:00;;;;;;;25.55;15.15;;;;;;;24.18;56.96;99990.41;5114329;27;20510;-73
2022/06/26 03:46:26;;;;;;;27.20;14.13;;;;;;;24.33;56.42;99980.41;5116073;27;20121;-71
2022/06/26 03:48:51;;;;;;;22.80;12.70;;;;;;;24.46;55.35;99979.72;5096632;27;20126;-72
2022/06/26 03:51:16;;;;;;;25.20;13.50;;;;;;;24.60;55.07;99978.84;5078965;27;20073;-71
2022/06/26 03:53:42;;;;;;;19.08;12.40;;;;;;;24.75;54.82;99992.44;5096243;27;20453;-71
2022/06/26 03:56:11;;;;;;;26.17;13.98;;;;;;;24.89;54.50;99984.19;5097436;27;20500;-71
2022/06/26 03:58:36;;;;;;;24.70;14.05;;;;;;;25.04;54.61;99994.25;5097420;27;20504;-71
2022/06/26 04:01:00;;;;;;;25.08;13.27;;;;;;;25.19;54.76;99987.69;5097348;27;20066;-72
2022/06/26 04:03:25;;;;;;;26.10;13.02;;;;;;;25.36;54.10;99993.72;5115275;27;20038;-73
2022/06/26 04:05:50;;;;;;;30.30;15.02;;;;;;;25.50;53.86;99987.34;5097298;27;20087;-73
2022/06/26 04:08:15;;;;;;;21.63;12.85;;;;;;;25.66;53.33;99989.78;5097620;27;20126;-72
2022/06/26 04:10:43;;;;;;;22.17;13.13;;;;;;;25.82;52.19;99991.38;5080550;27;20053;-71
2022/06/26 04:13:28;;;;;;;24.90;14.38;;;;;;;25.98;52.20;99995.69;5096752;27;20049;-72
2022/06/26 04:15:53;;;;;;;20.90;12.75;;;;;;;26.12;51.71;99989.25;5097220;27;20045;-72
2022/06/26 04:18:18;;;;;;;26.10;12.77;;;;;;;26.25;51.03;99993.97;5097410;27;20527;-72
2022/06/26 04:20:43;;;;;;;27.92;13.05;;;;;;;26.36;49.98;99988.78;5097473;27;20189;-72
2022/06/26 04:23:11;;;;;;;30.17;12.95;;;;;;;26.51;49.69;99996.00;5097688;27;20178;-71
2022/06/26 04:25:40;;;;;;;31.08;11.77;;;;;;;26.59;47.91;99999.41;5097466;27;20474;-71
2022/06/26 04:28:06;;;;;;;26.58;13.10;;;;;;;26.67;48.29;100001.09;5097220;27;20042;-72
2022/06/26 04:30:36;;;;;;;25.33;12.15;;;;;;;26.76;48.46;99995.25;5097579;27;20137;-72
2022/06/26 04:33:02;;;;;;;29.17;11.80;;;;;;;26.87;47.57;99996.53;5080616;27;20036;-72
2022/06/26 04:35:30;;;;;;;22.75;11.23;;;;;;;26.93;48.51;99989.44;5097078;27;20511;-73
2022/06/26 04:37:56;;;;;;;19.95;11.88;;;;;;;26.97;47.57;99997.03;5080291;27;20047;-70
2022/06/26 04:40:21;;;;;;;24.08;11.88;;;;;;;27.06;47.54;100003.16;5115441;27;20047;-72
2022/06/26 04:42:47;;;;;;;27.10;11.60;;;;;;;27.18;47.72;100006.97;5079703;27;20026;-72
2022/06/26 04:45:12;;;;;;;22.65;11.90;;;;;;;27.34;46.26;100011.19;5115377;27;20058;-71
2022/06/26 04:47:40;;;;;;;24.92;10.73;;;;;;;27.51;46.08;100015.22;5097294;27;20042;-72
2022/06/26 04:50:10;;;;;;;25.83;10.88;;;;;;;27.70;45.11;100008.91;5096876;27;20055;-72
2022/06/26 04:52:35;;;;;;;19.42;9.77;;;;;;;27.92;43.72;100011.41;5096661;27;20037;-72
2022/06/26 04:55:01;;;;;;;26.50;10.18;;;;;;;28.17;44.32;100015.19;5097177;27;20046;-74
2022/06/26 04:57:29;;;;;;;13.05;8.38;;;;;;;28.45;41.58;100013.00;5080168;27;20922;-73
2022/06/26 04:59:53;;;;;;;14.90;8.43;;;;;;;28.65;41.28;100006.59;5097628;27;20504;-76
2022/06/26 05:02:18;;;;;;;15.75;7.97;;;;;;;28.87;40.97;100006.09;5080339;27;20035;-74
2022/06/26 05:05:12;;;;;;;11.63;8.10;;;;;;;29.20;38.22;100022.38;5031292;28;20529;-75
2022/06/26 05:08:06;;;;;;;17.13;8.20;;;;;;;29.48;38.00;100021.13;5018687;28;20451;-75
2022/06/26 05:10:33;;;;;;;20.15;8.10;;;;;;;29.65;37.01;100016.78;5015205;28;20123;-75
2022/06/26 05:12:57;;;;;;;14.80;8.70;;;;;;;29.82;38.14;100017.03;5014848;28;20127;-76
2022/06/26 05:15:57;;;;;;;11.13;7.20;;;;;;;30.14;37.61;100017.81;5000659;28;20102;-75
2022/06/26 05:18:23;;;;;;;11.88;6.97;;;;;;;30.55;35.41;100008.94;5018392;28;20044;-76
2022/06/26 05:20:47;;;;;;;16.17;8.05;;;;;;;30.92;35.75;100009.72;5036162;28;20064;-75
2022/06/26 05:23:14;;;;;;;21.67;7.68;;;;;;;31.35;33.92;100021.38;5019119;28;20194;-75
2022/06/26 05:25:48;;;;;;;14.20;7.38;;;;;;;31.82;33.64;100010.47;5019170;28;20590;-74
2022/06/26 05:28:13;;;;;;;13.30;7.13;;;;;;;32.17;31.81;100023.41;5017881;28;20511;-75
2022/06/26 05:30:38;;;;;;;10.43;6.95;;;;;;;32.40;31.43;100024.22;5018772;28;20124;-73
2022/06/26 05:33:06;;;;;;;11.77;7.30;;;;;;;32.64;31.57;100022.25;5001836;28;20068;-73
2022/06/26 05:35:31;;;;;;;9.15;6.45;;;;;;;32.92;30.66;100021.47;5035014;28;20082;-73
2022/06/26 05:37:57;;;;;;;22.83;6.78;;;;;;;33.19;31.06;100030.84;5035182;28;20423;-74
2022/06/26 05:40:23;;;;;;;20.02;7.22;;;;;;;33.46;31.91;100035.78;5018689;28;20040;-73
2022/06/26 05:42:50;;;;;;;20.45;8.55;;;;;;;33.69;30.68;100026.50;5099368;27;20034;-70
2022/06/26 05:45:15;;;;;;;13.02;7.53;;;;;;;33.98;30.45;100035.53;5082622;27;20472;-71
2022/06/26 05:47:55;;;;;;;11.25;7.03;;;;;;;34.26;30.01;100038.22;5099428;27;20099;-69
2022/06/26 05:50:24;;;;;;;12.95;6.95;;;;;;;34.55;29.84;100038.88;5082985;27;20118;-71
2022/06/26 05:53:03;;;;;;;17.02;6.53;;;;;;;34.86;28.40;100031.84;5084718;27;20069;-73
2022/06/26 05:55:48;;;;;;;14.75;7.40;;;;;;;35.22;27.82;100033.06;5054713;28;20059;-74
2022/06/26 05:58:32;;;;;;;8.73;6.70;;;;;;;35.52;25.84;100036.19;5037998;28;20429;-76
2022/06/26 06:01:16;;;;;;;10.00;6.53;;;;;;;35.98;26.42;100037.41;5044040;28;20048;-75
2022/06/26 06:03:44;;;;;;;11.23;7.03;;;;;;;36.50;25.91;100030.25;5038203;28;20093;-75
2022/06/26 06:06:09;;;;;;;9.20;5.38;;;;;;;37.01;24.41;100120.28;5054690;28;20040;-72
2022/06/26 06:08:34;;;;;;;7.85;5.80;;;;;;;37.46;24.22;100089.00;5037347;28;20036;-72
2022/06/26 06:10:58;;;;;;;11.98;6.35;;;;;;;37.98;23.24;100085.16;5020787;28;20052;-73
2022/06/26 06:13:23;;;;;;;11.68;6.75;;;;;;;38.53;22.40;100028.56;5054123;28;20051;-75
2022/06/26 06:15:48;;;;;;;11.18;6.85;;;;;;;39.01;22.81;100027.00;5037299;28;20143;-74
2022/06/26 06:18:13;;;;;;;7.53;6.22;;;;;;;39.54;22.64;100032.78;5020409;28;20510;-74
2022/06/26 06:20:38;;;;;;;7.65;6.35;;;;;;;40.09;21.70;100041.81;5050278;28;20108;-72
2022/06/26 06:23:06;;;;;;;8.77;6.20;;;;;;;40.59;21.55;100037.66;5053098;28;20406;-74
2022/06/26 06:25:31;;;;;;;9.10;6.18;;;;;;;41.01;20.78;100042.44;5065705;28;20055;-73
2022/06/26 06:28:00;;;;;;;13.90;7.43;;;;;;;41.43;19.74;100041.56;5024034;28;20476;-74
2022/06/26 06:30:28;;;;;;;10.30;6.65;;;;;;;41.86;19.99;100031.09;5037623;28;20414;-73
2022/06/26 06:32:54;;;;;;;33.75;6.95;;;;;;;42.26;19.67;100040.72;5073933;27;20491;-73
2022/06/26 06:35:54;;;;;;;9.98;6.60;;;;;;;42.69;19.10;100044.06;5034803;28;20071;-75
2022/06/26 06:38:20;;;;;;;9.25;7.18;;;;;;;42.93;18.24;100043.03;5017328;28;20211;-73
2022/06/26 06:40:51;;;;;;;7.82;7.00;;;;;;;43.04;18.06;100045.31;5017528;28;20454;-73
2022/06/26 06:43:22;;;;;;;7.88;6.97;;;;;;;43.19;17.82;100046.97;4985192;28;20665;-75
2022/06/26 06:46:06;;;;;;;9.30;6.53;;;;;;;43.36;17.10;100046.28;5034137;28;20430;-74
2022/06/26 06:48:31;;;;;;;8.98;7.15;;;;;;;43.58;16.55;100048.31;5000832;28;20379;-74
2022/06/26 06:51:14;;;;;;;10.57;7.40;;;;;;;43.89;16.95;100043.59;5017496;28;20126;-75
2022/06/26 06:53:40;;;;;;;7.80;7.10;;;;;;;44.11;16.98;100052.00;5017684;28;20591;-73
2022/06/26 06:56:05;;;;;;;8.30;7.47;;;;;;;44.29;16.14;100052.91;5000946;28;20049;-75
2022/06/26 06:58:30;;;;;;;8.18;7.38;;;;;;;44.51;16.47;100052.03;5017216;28;20056;-74
2022/06/26 07:00:54;;;;;;;8.55;7.10;;;;;;;44.52;16.25;100056.50;5000691;28;20040;-74
2022/06/26 07:03:21;;;;;;;10.52;7.47;;;;;;;44.96;16.18;100054.69;5015357;28;20247;-75
2022/06/26 07:05:46;;;;;;;11.05;7.68;;;;;;;45.52;15.70;100054.63;5016345;28;20057;-75
2022/06/26 07:08:11;;;;;;;10.35;7.45;;;;;;;45.73;14.83;100048.28;5033643;28;20039;-74
2022/06/26 07:10:36;;;;;;;9.48;8.05;;;;;;;45.41;15.17;100053.25;5029310;27;20082;-74
2022/06/26 07:13:01;;;;;;;8.77;7.68;;;;;;;45.02;16.04;100048.59;5098275;27;20043;-73
2022/06/26 07:15:26;;;;;;;8.25;7.38;;;;;;;44.72;16.02;100049.47;5098789;27;20054;-74
2022/06/26 07:17:51;;;;;;;9.45;7.78;;;;;;;44.56;15.93;100053.88;5081655;27;20034;-74
2022/06/26 07:20:16;;;;;;;11.65;8.00;;;;;;;44.31;15.83;100046.97;5098237;27;20924;-73
2022/06/26 07:22:42;;;;;;;11.55;7.57;;;;;;;44.32;15.78;100040.19;5099356;27;20042;-75
2022/06/26 07:25:32;;;;;;;9.45;8.65;;;;;;;44.22;16.08;100049.75;5098437;27;20077;-76
2022/06/26 07:28:03;;;;;;;8.50;7.07;;;;;;;44.16;15.23;100043.41;5081624;27;20034;-76
2022/06/26 07:30:33;;;;;;;8.15;7.45;;;;;;;44.11;15.95;100040.78;5098135;27;20504;-76
2022/06/26 07:33:04;;;;;;;8.15;7.28;;;;;;;44.43;15.70;100052.84;5098172;27;20447;-74
2022/06/26 07:35:30;;;;;;;7.45;6.60;;;;;;;44.62;15.56;100049.75;5080687;27;20050;-77
2022/06/26 07:37:55;;;;;;;8.85;8.02;;;;;;;44.67;14.86;100053.28;5098447;27;20038;-76
2022/06/26 07:40:21;;;;;;;9.15;8.23;;;;;;;44.82;15.08;100049.19;5097795;27;20042;-75
2022/06/26 07:42:46;;;;;;;10.23;8.05;;;;;;;45.14;14.83;100056.41;5099196;27;20427;-75
2022/06/26 07:45:13;;;;;;;9.07;7.80;;;;;;;45.73;14.54;100057.56;5117646;27;20147;-74
2022/06/26 07:47:49;;;;;;;8.75;7.97;;;;;;;46.59;14.42;100053.72;5081041;27;20062;-71
2022/06/26 07:50:15;;;;;;;9.98;9.05;;;;;;;47.20;13.64;100057.84;5105733;27;20045;-71
2022/06/26 07:52:40;;;;;;;11.27;9.52;;;;;;;47.56;13.52;100056.44;5122489;27;20042;-71
2022/06/26 07:55:05;;;;;;;11.27;10.13;;;;;;;47.83;13.20;100061.53;5117313;27;20034;-73
2022/06/26 07:57:32;;;;;;;10.43;9.63;;;;;;;47.91;12.69;100054.13;5103988;27;20045;-69
2022/06/26 07:59:57;;;;;;;10.98;10.07;;;;;;;47.82;12.86;100047.72;5106778;27;20043;-69
2022/06/26 08:02:21;;;;;;;11.70;10.70;;;;;;;47.71;12.96;100058.63;5121315;27;20046;-70
2022/06/26 08:04:46;;;;;;;11.68;10.68;;;;;;;47.69;13.09;100061.78;5117745;27;20031;-70
2022/06/26 08:07:11;;;;;;;11.50;10.50;;;;;;;47.78;13.39;100046.75;5123052;27;20046;-70
2022/06/26 08:09:36;;;;;;;11.13;10.13;;;;;;;48.05;13.02;100054.63;5101982;27;20644;-70
2022/06/26 08:12:01;;;;;;;10.93;9.98;;;;;;;48.79;13.13;100053.56;5115532;27;20523;-70
2022/06/26 08:14:25;;;;;;;12.23;10.70;;;;;;;49.54;12.03;100053.94;5115902;27;20053;-70
2022/06/26 08:16:50;;;;;;;12.98;11.65;;;;;;;50.30;11.88;100054.84;5116223;27;20047;-70
2022/06/26 08:19:15;;;;;;;19.23;13.15;;;;;;;51.16;11.35;100045.22;5115424;27;20043;-71
2022/06/26 08:24:23;;;;;;;21.58;20.00;;;;;;;52.79;10.31;100049.63;5115412;27;20514;-70
2022/06/26 08:26:48;;;;;;;18.60;17.42;;;;;;;53.16;9.94;100046.94;5079814;27;20472;-70
2022/06/26 08:29:13;;;;;;;21.48;19.75;;;;;;;53.51;9.61;100052.28;5097331;27;20054;-71
2022/06/26 08:31:37;;;;;;;22.65;21.15;;;;;;;53.89;9.28;100094.78;5115210;27;20042;-70
2022/06/26 08:34:03;;;;;;;27.55;25.67;;;;;;;54.14;9.52;100049.38;5096950;27;20048;-70
2022/06/26 08:36:28;;;;;;;25.73;24.10;;;;;;;54.35;9.02;100045.91;5115561;27;20055;-70
2022/06/26 08:38:53;;;;;;;25.25;23.83;;;;;;;54.48;9.02;100083.56;5062937;27;20508;-70
2022/06/26 08:41:23;;;;;;;32.05;29.85;;;;;;;54.81;9.01;100096.94;5096566;27;20152;-70
2022/06/26 08:43:50;;;;;;;30.33;28.50;;;;;;;54.92;8.84;100097.81;5097118;27;20031;-71
2022/06/26 08:46:17;;;;;;;32.15;30.38;;;;;;;55.21;8.60;100093.94;5115166;27;20050;-69
2022/06/26 08:48:44;;;;;;;29.38;27.73;;;;;;;55.30;8.09;100091.56;5115124;27;20043;-72
2022/06/26 08:51:10;;;;;;;32.55;30.85;;;;;;;55.33;8.16;100096.44;5082697;27;20048;-72
2022/06/26 08:53:35;;;;;;;34.40;32.47;;;;;;;55.37;7.99;100091.59;5102309;27;20083;-72
2022/06/26 08:56:01;;;;;;;33.67;31.52;;;;;;;54.21;8.62;100088.59;5100609;27;20058;-71
2022/06/26 08:58:26;;;;;;;31.05;29.00;;;;;;;54.18;9.86;100038.88;5101133;27;20046;-79
2022/06/26 09:00:51;;;;;;;34.40;32.17;;;;;;;54.48;9.06;100033.00;5100880;27;20042;-77
2022/06/26 09:03:15;;;;;;;33.92;32.17;;;;;;;54.98;8.61;100071.31;5066863;27;20035;-74
2022/06/26 09:05:40;;;;;;;39.65;37.55;;;;;;;55.67;8.47;100081.91;5119368;27;20046;-78
2022/06/26 09:08:06;;;;;;;39.90;37.85;;;;;;;56.28;8.20;100080.88;5101257;27;20046;-78
2022/06/26 09:10:37;;;;;;;43.08;40.83;;;;;;;56.69;7.67;100087.03;5120373;27;20042;-78
2022/06/26 09:13:02;;;;;;;42.50;40.30;;;;;;;57.19;7.70;100092.72;5102584;27;20054;-79
2022/06/26 09:15:28;;;;;;;49.22;46.70;;;;;;;56.99;7.58;100078.03;5087112;27;20038;-77
2022/06/26 09:18:04;;;;;;;44.30;41.58;;;;;;;56.57;7.95;100078.03;5119119;27;20135;-72
2022/06/26 09:20:34;;;;;;;43.90;41.25;;;;;;;56.94;8.08;100075.56;5119201;27;20206;-70
2022/06/26 09:23:00;;;;;;;54.10;51.08;;;;;;;57.26;7.68;100075.50;5118764;27;20038;-71
2022/06/26 09:25:37;;;;;;;54.67;51.60;;;;;;;58.03;7.23;100066.94;5100129;27;20042;-69
2022/06/26 09:28:09;;;;;;;64.72;61.83;;;;;;;58.29;6.93;100063.50;5083139;27;20117;-70
2022/06/26 09:30:54;;;;;;;65.20;61.53;;;;;;;58.72;6.65;100058.19;5119383;27;20435;-68
2022/06/26 09:33:20;;;;;;;67.50;64.22;;;;;;;58.65;6.73;100045.97;5118160;27;20253;-71
2022/06/26 09:35:46;;;;;;;71.78;68.45;;;;;;;58.92;6.47;100061.31;5083243;27;20039;-69
2022/06/26 09:38:16;;;;;;;78.78;75.20;;;;;;;59.32;6.33;100061.66;5118567;27;20039;-70
2022/06/26 09:40:52;;;;;;;74.82;71.53;;;;;;;59.76;5.73;100058.63;5118475;27;20549;-70
2022/06/26 09:43:27;;;;;;;85.50;81.38;;;;;;;59.69;6.21;100046.44;5100063;27;20046;-70
2022/06/26 09:45:54;;;;;;;86.00;82.18;;;;;;;59.34;6.01;100054.28;5099829;27;20038;-71
2022/06/26 09:48:20;;;;;;;80.78;77.13;;;;;;;59.16;6.17;100045.00;5099999;27;20078;-69
2022/06/26 09:50:46;;;;;;;85.93;82.07;;;;;;;59.09;6.68;100042.25;5118603;27;20094;-69
2022/06/26 09:53:13;;;;;;;87.65;83.38;;;;;;;59.28;6.03;100050.19;5118733;27;20445;-71
2022/06/26 09:55:38;;;;;;;92.28;87.82;;;;;;;59.25;6.50;100045.34;5099735;27;20046;-70
2022/06/26 09:58:03;;;;;;;92.28;88.00;;;;;;;58.37;6.88;100047.81;5099451;27;20091;-70
2022/06/26 10:00:30;;;;;;;80.22;76.65;;;;;;;57.31;7.47;100032.06;5118152;27;20411;-70
2022/06/26 10:08:25;;;;;;;43.38;41.22;;;;;;;52.54;9.61;99958.09;5099743;27;20046;-70
2022/06/26 10:10:50;;;;;;;31.52;29.88;;;;;;;50.01;10.87;99939.78;5116790;27;20039;-70
2022/06/26 10:13:15;;;;;;;27.70;25.85;;;;;;;50.01;11.22;99948.31;5118476;27;20053;-70
2022/06/26 10:16:02;;;;;;;25.05;23.45;;;;;;;51.13;10.78;99943.72;5117965;27;20125;-71
2022/06/26 10:19:05;;;;;;;24.85;23.38;;;;;;;51.03;10.59;99940.63;5118781;27;20045;-70
2022/06/26 10:21:36;;;;;;;18.50;17.20;;;;;;;48.49;11.98;99930.50;5099504;27;20050;-69
2022/06/26 10:24:05;;;;;;;15.32;14.00;;;;;;;46.21;13.03;99938.91;5099412;27;20083;-70
2022/06/26 10:26:31;;;;;;;15.10;13.93;;;;;;;45.79;14.08;99932.28;5117270;27;20045;-70
2022/06/26 10:29:03;;;;;;;17.17;15.57;;;;;;;47.45;13.42;99928.09;5082252;27;20042;-76
2022/06/26 10:31:57;;;;;;;18.90;17.70;;;;;;;49.98;11.56;99938.53;5117961;27;20046;-77
2022/06/26 10:34:25;;;;;;;19.30;18.10;;;;;;;50.11;10.74;99930.75;5014439;28;20049;-75
2022/06/26 10:37:04;;;;;;;16.85;15.63;;;;;;;49.02;11.50;99932.13;5014015;28;20045;-74
2022/06/26 10:39:49;;;;;;;20.02;18.23;;;;;;;46.83;12.60;99926.13;5014343;28;20049;-75
2022/06/26 10:45:09;;;;;;;12.18;11.00;;;;;;;42.01;16.10;99901.97;5014367;28;20051;-74
2022/06/26 10:47:52;;;;;;;10.18;9.27;;;;;;;40.69;16.13;99894.94;5013983;28;20241;-75
2022/06/26 10:50:36;;;;;;;7.60;6.80;;;;;;;39.38;17.67;99897.31;4997115;28;20550;-75
2022/06/26 10:53:16;;;;;;;11.98;7.65;;;;;;;38.29;18.94;99883.50;5012925;28;20661;-76
2022/06/26 10:55:43;;;;;;;13.02;7.65;;;;;;;37.24;21.50;99886.25;5000239;28;20055;-76
2022/06/26 10:58:08;;;;;;;9.55;7.72;;;;;;;36.51;22.68;99877.22;4986933;28;20052;-77
2022/06/26 11:00:33;;;;;;;10.75;8.32;;;;;;;35.50;24.27;99883.06;5013253;28;20166;-77
2022/06/26 11:02:58;;;;;;;10.52;8.10;;;;;;;34.88;26.11;99880.03;5013240;28;20060;-76
2022/06/26 11:05:22;;;;;;;9.40;7.13;;;;;;;34.53;26.37;99874.97;5013219;28;20057;-75
2022/06/26 11:07:53;;;;;;;8.93;6.38;;;;;;;34.34;27.08;99879.16;4997408;28;20044;-75
2022/06/26 11:10:21;;;;;;;13.48;8.00;;;;;;;34.28;26.66;99874.69;5045293;27;20058;-75
2022/06/26 11:12:48;;;;;;;8.70;7.57;;;;;;;34.14;25.91;99875.03;5098882;27;20041;-77
2022/06/26 11:15:26;;;;;;;10.45;7.15;;;;;;;34.18;25.46;99878.13;5117746;27;20038;-75
2022/06/26 11:17:58;;;;;;;10.95;8.40;;;;;;;34.01;26.45;99875.41;5117105;27;20119;-75
2022/06/26 11:23:15;;;;;;;9.82;6.72;;;;;;;33.68;26.25;99878.25;5116760;27;20039;-74
2022/06/26 11:25:41;;;;;;;9.43;7.40;;;;;;;33.43;26.55;99867.66;5098342;27;20046;-74
2022/06/26 11:28:08;;;;;;;10.60;7.50;;;;;;;33.38;26.16;99868.44;5116317;27;20070;-74
2022/06/26 11:30:34;;;;;;;9.02;7.05;;;;;;;33.35;25.48;99871.69;5098079;27;20035;-74
2022/06/26 11:32:59;;;;;;;10.02;6.60;;;;;;;33.30;26.42;99865.22;5080762;27;20046;-75
2022/06/26 11:35:24;;;;;;;10.52;7.18;;;;;;;33.27;26.50;99869.34;5117007;27;20097;-73
2022/06/26 11:37:49;;;;;;;8.85;6.85;;;;;;;33.24;27.53;99861.56;5098016;27;20081;-75